sensor_id;sensor_type;location;lat;lon;timestamp;P1;durP1;ratioP1;P2;durP2;ratioP2
75234;SDS011;63817;51.228;-1.472;2023-04-25T00:00:49;21.23;;;5.78;;
75234;SDS011;63817;51.228;-1.472;2023-04-25T00:03:15;32.10;;;8.02;;
75234;SDS011;63817;51.228;-1.472;2023-04-25T00:05:41;27.45;;;7.15;;
75234;SDS011;63817;51.228;-1.472;2023-04-25T00:08:06;22.25;;;6.90;;
75234;SDS011;63817;51.228;-1.472;2023-04-25T00:10:32;29.60;;;7.68;;
75234;SDS011;63817;51.228;-1.472;2023-04-25T00:12:57;29.80;;;7.25;;
75234;SDS011;63817;51.228;-1.472;2023-04-25T00:15:23;33.10;;;6.75;;
75234;SDS011;63817;51.228;-1.472;2023-04-25T00:17:49;28.35;;;7.50;;
75234;SDS011;63817;51.228;-1.472;2023-04-25T00:20:14;27.98;;;6.88;;
75234;SDS011;63817;51.228;-1.472;2023-04-25T00:22:40;24.38;;;7.07;;
75234;SDS011;63817;51.228;-1.472;2023-04-25T00:25:05;23.48;;;6.47;;
75234;SDS011;63817;51.228;-1.472;2023-04-25T00:27:31;27.25;;;6.55;;
75234;SDS011;63817;51.228;-1.472;2023-04-25T00:29:57;27.27;;;7.15;;
75234;SDS011;63817;51.228;-1.472;2023-04-25T00:32:22;30.60;;;7.40;;
75234;SDS011;63817;51.228;-1.472;2023-04-25T00:34:48;26.42;;;6.93;;
75234;SDS011;63817;51.228;-1.472;2023-04-25T00:37:13;23.98;;;6.63;;
75234;SDS011;63817;51.228;-1.472;2023-04-25T00:39:39;22.50;;;6.55;;
75234;SDS011;63817;51.228;-1.472;2023-04-25T00:42:04;29.52;;;7.00;;
75234;SDS011;63817;51.228;-1.472;2023-04-25T00:44:30;25.05;;;7.22;;
75234;SDS011;63817;51.228;-1.472;2023-04-25T00:46:57;34.10;;;6.88;;
75234;SDS011;63817;51.228;-1.472;2023-04-25T00:49:23;28.35;;;7.60;;
75234;SDS011;63817;51.228;-1.472;2023-04-25T00:51:48;27.40;;;7.57;;
75234;SDS011;63817;51.228;-1.472;2023-04-25T00:54:14;41.90;;;8.13;;
75234;SDS011;63817;51.228;-1.472;2023-04-25T00:56:39;27.52;;;8.23;;
75234;SDS011;63817;51.228;-1.472;2023-04-25T00:59:05;23.73;;;6.43;;
75234;SDS011;63817;51.228;-1.472;2023-04-25T01:01:30;23.67;;;6.57;;
75234;SDS011;63817;51.228;-1.472;2023-04-25T01:03:57;22.13;;;7.68;;
75234;SDS011;63817;51.228;-1.472;2023-04-25T01:06:23;27.98;;;6.40;;
75234;SDS011;63817;51.228;-1.472;2023-04-25T01:08:49;28.45;;;6.60;;
75234;SDS011;63817;51.228;-1.472;2023-04-25T01:11:14;24.98;;;6.95;;
75234;SDS011;63817;51.228;-1.472;2023-04-25T01:13:40;33.63;;;6.75;;
75234;SDS011;63817;51.228;-1.472;2023-04-25T01:16:05;30.38;;;7.28;;
75234;SDS011;63817;51.228;-1.472;2023-04-25T01:18:31;27.35;;;7.13;;
75234;SDS011;63817;51.228;-1.472;2023-04-25T01:23:33;30.85;;;6.75;;
75234;SDS011;63817;51.228;-1.472;2023-04-25T01:25:59;37.45;;;6.50;;
75234;SDS011;63817;51.228;-1.472;2023-04-25T01:28:26;24.13;;;7.75;;
75234;SDS011;63817;51.228;-1.472;2023-04-25T01:30:51;29.20;;;6.25;;
75234;SDS011;63817;51.228;-1.472;2023-04-25T01:33:17;23.40;;;6.55;;
75234;SDS011;63817;51.228;-1.472;2023-04-25T01:35:43;23.20;;;6.65;;
75234;SDS011;63817;51.228;-1.472;2023-04-25T01:38:09;28.83;;;5.85;;
75234;SDS011;63817;51.228;-1.472;2023-04-25T01:40:36;30.15;;;6.28;;
75234;SDS011;63817;51.228;-1.472;2023-04-25T01:43:04;24.25;;;5.53;;
75234;SDS011;63817;51.228;-1.472;2023-04-25T01:45:30;26.70;;;5.43;;
75234;SDS011;63817;51.228;-1.472;2023-04-25T01:47:55;24.08;;;5.18;;
75234;SDS011;63817;51.228;-1.472;2023-04-25T01:50:24;24.73;;;6.22;;
75234;SDS011;63817;51.228;-1.472;2023-04-25T01:52:50;21.73;;;5.13;;
75234;SDS011;63817;51.228;-1.472;2023-04-25T01:55:16;25.90;;;6.63;;
75234;SDS011;63817;51.228;-1.472;2023-04-25T01:57:41;30.48;;;6.03;;
75234;SDS011;63817;51.228;-1.472;2023-04-25T02:00:07;32.40;;;6.22;;
75234;SDS011;63817;51.228;-1.472;2023-04-25T02:02:34;27.75;;;5.65;;
75234;SDS011;63817;51.228;-1.472;2023-04-25T02:05:00;29.33;;;6.88;;
75234;SDS011;63817;51.228;-1.472;2023-04-25T02:07:26;21.23;;;5.28;;
75234;SDS011;63817;51.228;-1.472;2023-04-25T02:09:51;26.60;;;5.60;;
75234;SDS011;63817;51.228;-1.472;2023-04-25T02:12:16;23.33;;;5.70;;
75234;SDS011;63817;51.228;-1.472;2023-04-25T02:14:42;27.58;;;4.80;;
75234;SDS011;63817;51.228;-1.472;2023-04-25T02:17:07;23.33;;;5.70;;
75234;SDS011;63817;51.228;-1.472;2023-04-25T02:19:33;24.83;;;4.30;;
75234;SDS011;63817;51.228;-1.472;2023-04-25T02:21:58;25.35;;;5.68;;
75234;SDS011;63817;51.228;-1.472;2023-04-25T02:24:24;18.17;;;4.45;;
75234;SDS011;63817;51.228;-1.472;2023-04-25T02:26:50;20.77;;;4.97;;
75234;SDS011;63817;51.228;-1.472;2023-04-25T02:29:15;24.45;;;5.38;;
75234;SDS011;63817;51.228;-1.472;2023-04-25T02:31:41;23.10;;;5.85;;
75234;SDS011;63817;51.228;-1.472;2023-04-25T02:34:07;26.55;;;5.32;;
75234;SDS011;63817;51.228;-1.472;2023-04-25T02:36:32;15.18;;;4.13;;
75234;SDS011;63817;51.228;-1.472;2023-04-25T02:38:59;19.27;;;4.18;;
75234;SDS011;63817;51.228;-1.472;2023-04-25T02:41:25;27.42;;;5.03;;
75234;SDS011;63817;51.228;-1.472;2023-04-25T02:43:51;29.58;;;4.45;;
75234;SDS011;63817;51.228;-1.472;2023-04-25T02:46:16;14.80;;;4.32;;
75234;SDS011;63817;51.228;-1.472;2023-04-25T02:48:42;21.05;;;4.72;;
75234;SDS011;63817;51.228;-1.472;2023-04-25T02:51:07;16.90;;;4.18;;
75234;SDS011;63817;51.228;-1.472;2023-04-25T02:53:32;20.60;;;3.92;;
75234;SDS011;63817;51.228;-1.472;2023-04-25T02:55:58;19.90;;;4.65;;
75234;SDS011;63817;51.228;-1.472;2023-04-25T02:58:24;29.10;;;4.40;;
75234;SDS011;63817;51.228;-1.472;2023-04-25T03:00:49;17.85;;;4.15;;
75234;SDS011;63817;51.228;-1.472;2023-04-25T03:03:15;12.93;;;3.45;;
75234;SDS011;63817;51.228;-1.472;2023-04-25T03:05:43;24.27;;;4.00;;
75234;SDS011;63817;51.228;-1.472;2023-04-25T03:08:08;19.48;;;4.32;;
75234;SDS011;63817;51.228;-1.472;2023-04-25T03:10:34;23.73;;;3.63;;
75234;SDS011;63817;51.228;-1.472;2023-04-25T03:12:59;25.75;;;4.35;;
75234;SDS011;63817;51.228;-1.472;2023-04-25T03:15:25;21.98;;;4.18;;
75234;SDS011;63817;51.228;-1.472;2023-04-25T03:17:50;22.40;;;4.38;;
75234;SDS011;63817;51.228;-1.472;2023-04-25T03:20:15;18.75;;;3.95;;
75234;SDS011;63817;51.228;-1.472;2023-04-25T03:22:41;17.95;;;4.55;;
75234;SDS011;63817;51.228;-1.472;2023-04-25T03:25:06;12.65;;;3.38;;
75234;SDS011;63817;51.228;-1.472;2023-04-25T03:27:32;22.63;;;4.32;;
75234;SDS011;63817;51.228;-1.472;2023-04-25T03:29:58;15.82;;;3.90;;
75234;SDS011;63817;51.228;-1.472;2023-04-25T03:32:24;20.45;;;4.45;;
75234;SDS011;63817;51.228;-1.472;2023-04-25T03:34:49;14.93;;;3.47;;
75234;SDS011;63817;51.228;-1.472;2023-04-25T03:37:15;15.65;;;3.60;;
75234;SDS011;63817;51.228;-1.472;2023-04-25T03:39:40;12.07;;;3.72;;
75234;SDS011;63817;51.228;-1.472;2023-04-25T03:42:06;20.35;;;4.25;;
75234;SDS011;63817;51.228;-1.472;2023-04-25T03:44:31;20.95;;;3.78;;
75234;SDS011;63817;51.228;-1.472;2023-04-25T03:46:56;21.23;;;3.83;;
75234;SDS011;63817;51.228;-1.472;2023-04-25T03:49:22;14.77;;;3.75;;
75234;SDS011;63817;51.228;-1.472;2023-04-25T03:51:47;21.20;;;4.25;;
75234;SDS011;63817;51.228;-1.472;2023-04-25T03:54:12;19.02;;;3.63;;
75234;SDS011;63817;51.228;-1.472;2023-04-25T03:56:38;21.17;;;4.10;;
75234;SDS011;63817;51.228;-1.472;2023-04-25T03:59:03;16.25;;;4.68;;
75234;SDS011;63817;51.228;-1.472;2023-04-25T04:01:29;15.60;;;3.80;;
75234;SDS011;63817;51.228;-1.472;2023-04-25T04:03:54;16.80;;;4.85;;
75234;SDS011;63817;51.228;-1.472;2023-04-25T04:06:19;22.17;;;5.05;;
75234;SDS011;63817;51.228;-1.472;2023-04-25T04:08:45;16.02;;;3.72;;
75234;SDS011;63817;51.228;-1.472;2023-04-25T04:11:11;17.67;;;4.60;;
75234;SDS011;63817;51.228;-1.472;2023-04-25T04:13:37;15.40;;;4.20;;
75234;SDS011;63817;51.228;-1.472;2023-04-25T04:16:02;21.63;;;4.60;;
75234;SDS011;63817;51.228;-1.472;2023-04-25T04:18:29;20.77;;;4.70;;
75234;SDS011;63817;51.228;-1.472;2023-04-25T04:20:54;18.95;;;4.43;;
75234;SDS011;63817;51.228;-1.472;2023-04-25T04:23:20;12.50;;;4.32;;
75234;SDS011;63817;51.228;-1.472;2023-04-25T04:25:46;21.38;;;4.75;;
75234;SDS011;63817;51.228;-1.472;2023-04-25T04:28:12;21.75;;;3.85;;
75234;SDS011;63817;51.228;-1.472;2023-04-25T04:30:38;17.08;;;4.45;;
75234;SDS011;63817;51.228;-1.472;2023-04-25T04:33:04;16.63;;;4.40;;
75234;SDS011;63817;51.228;-1.472;2023-04-25T04:35:29;22.17;;;3.97;;
75234;SDS011;63817;51.228;-1.472;2023-04-25T04:37:55;13.18;;;4.00;;
75234;SDS011;63817;51.228;-1.472;2023-04-25T04:40:21;22.90;;;4.32;;
75234;SDS011;63817;51.228;-1.472;2023-04-25T04:42:46;19.95;;;5.45;;
75234;SDS011;63817;51.228;-1.472;2023-04-25T04:45:13;22.40;;;4.80;;
75234;SDS011;63817;51.228;-1.472;2023-04-25T04:47:38;20.20;;;4.07;;
75234;SDS011;63817;51.228;-1.472;2023-04-25T04:50:05;17.48;;;4.63;;
75234;SDS011;63817;51.228;-1.472;2023-04-25T04:52:33;15.52;;;4.07;;
75234;SDS011;63817;51.228;-1.472;2023-04-25T04:54:59;14.60;;;4.65;;
75234;SDS011;63817;51.228;-1.472;2023-04-25T04:57:25;16.77;;;4.47;;
75234;SDS011;63817;51.228;-1.472;2023-04-25T04:59:50;14.73;;;3.65;;
75234;SDS011;63817;51.228;-1.472;2023-04-25T05:02:16;16.30;;;4.53;;
75234;SDS011;63817;51.228;-1.472;2023-04-25T05:04:42;20.27;;;4.30;;
75234;SDS011;63817;51.228;-1.472;2023-04-25T05:07:07;15.90;;;3.63;;
75234;SDS011;63817;51.228;-1.472;2023-04-25T05:09:33;13.77;;;3.70;;
75234;SDS011;63817;51.228;-1.472;2023-04-25T05:11:58;15.15;;;3.72;;
75234;SDS011;63817;51.228;-1.472;2023-04-25T05:14:23;16.80;;;3.65;;
75234;SDS011;63817;51.228;-1.472;2023-04-25T05:16:49;20.73;;;5.25;;
75234;SDS011;63817;51.228;-1.472;2023-04-25T05:19:14;13.88;;;4.72;;
75234;SDS011;63817;51.228;-1.472;2023-04-25T05:21:40;17.55;;;3.88;;
75234;SDS011;63817;51.228;-1.472;2023-04-25T05:24:05;21.17;;;5.43;;
75234;SDS011;63817;51.228;-1.472;2023-04-25T05:26:31;15.25;;;3.83;;
75234;SDS011;63817;51.228;-1.472;2023-04-25T05:28:57;19.85;;;5.10;;
75234;SDS011;63817;51.228;-1.472;2023-04-25T05:31:22;21.50;;;5.00;;
75234;SDS011;63817;51.228;-1.472;2023-04-25T05:33:48;23.75;;;4.97;;
75234;SDS011;63817;51.228;-1.472;2023-04-25T05:36:14;17.35;;;4.10;;
75234;SDS011;63817;51.228;-1.472;2023-04-25T05:38:39;15.70;;;3.78;;
75234;SDS011;63817;51.228;-1.472;2023-04-25T05:41:05;18.65;;;5.00;;
75234;SDS011;63817;51.228;-1.472;2023-04-25T05:43:30;21.73;;;4.22;;
75234;SDS011;63817;51.228;-1.472;2023-04-25T05:45:55;19.55;;;5.50;;
75234;SDS011;63817;51.228;-1.472;2023-04-25T05:48:21;22.95;;;4.70;;
75234;SDS011;63817;51.228;-1.472;2023-04-25T05:50:46;16.27;;;3.38;;
75234;SDS011;63817;51.228;-1.472;2023-04-25T05:53:12;16.25;;;3.30;;
75234;SDS011;63817;51.228;-1.472;2023-04-25T05:55:37;17.45;;;4.03;;
75234;SDS011;63817;51.228;-1.472;2023-04-25T05:58:03;13.88;;;3.63;;
75234;SDS011;63817;51.228;-1.472;2023-04-25T06:00:29;19.90;;;4.60;;
75234;SDS011;63817;51.228;-1.472;2023-04-25T06:02:55;15.52;;;3.92;;
75234;SDS011;63817;51.228;-1.472;2023-04-25T06:05:21;21.13;;;4.60;;
75234;SDS011;63817;51.228;-1.472;2023-04-25T06:07:46;20.92;;;4.45;;
75234;SDS011;63817;51.228;-1.472;2023-04-25T06:10:11;13.43;;;3.28;;
75234;SDS011;63817;51.228;-1.472;2023-04-25T06:12:37;22.92;;;3.78;;
75234;SDS011;63817;51.228;-1.472;2023-04-25T06:15:03;16.25;;;3.33;;
75234;SDS011;63817;51.228;-1.472;2023-04-25T06:17:29;14.93;;;3.30;;
75234;SDS011;63817;51.228;-1.472;2023-04-25T06:19:55;12.90;;;3.45;;
75234;SDS011;63817;51.228;-1.472;2023-04-25T06:22:20;19.20;;;3.35;;
75234;SDS011;63817;51.228;-1.472;2023-04-25T06:24:46;17.83;;;3.28;;
75234;SDS011;63817;51.228;-1.472;2023-04-25T06:27:11;12.20;;;3.80;;
75234;SDS011;63817;51.228;-1.472;2023-04-25T06:29:37;14.68;;;3.33;;
75234;SDS011;63817;51.228;-1.472;2023-04-25T06:32:02;15.93;;;3.38;;
75234;SDS011;63817;51.228;-1.472;2023-04-25T06:34:28;14.27;;;4.03;;
75234;SDS011;63817;51.228;-1.472;2023-04-25T06:36:53;27.88;;;3.67;;
75234;SDS011;63817;51.228;-1.472;2023-04-25T06:39:19;20.38;;;3.67;;
75234;SDS011;63817;51.228;-1.472;2023-04-25T06:41:45;18.77;;;3.40;;
75234;SDS011;63817;51.228;-1.472;2023-04-25T06:44:10;25.25;;;4.60;;
75234;SDS011;63817;51.228;-1.472;2023-04-25T06:46:35;14.77;;;3.53;;
75234;SDS011;63817;51.228;-1.472;2023-04-25T06:49:02;13.15;;;3.35;;
75234;SDS011;63817;51.228;-1.472;2023-04-25T06:51:28;9.95;;;3.08;;
75234;SDS011;63817;51.228;-1.472;2023-04-25T06:53:55;13.52;;;3.08;;
75234;SDS011;63817;51.228;-1.472;2023-04-25T06:56:20;11.95;;;3.95;;
75234;SDS011;63817;51.228;-1.472;2023-04-25T06:58:46;18.35;;;3.35;;
75234;SDS011;63817;51.228;-1.472;2023-04-25T07:01:11;19.67;;;3.28;;
75234;SDS011;63817;51.228;-1.472;2023-04-25T07:03:37;19.35;;;4.20;;
75234;SDS011;63817;51.228;-1.472;2023-04-25T07:06:03;18.95;;;3.28;;
75234;SDS011;63817;51.228;-1.472;2023-04-25T07:08:29;20.08;;;3.88;;
75234;SDS011;63817;51.228;-1.472;2023-04-25T07:10:54;16.52;;;3.53;;
75234;SDS011;63817;51.228;-1.472;2023-04-25T07:13:20;8.57;;;2.58;;
75234;SDS011;63817;51.228;-1.472;2023-04-25T07:15:45;18.75;;;3.33;;
75234;SDS011;63817;51.228;-1.472;2023-04-25T07:18:13;12.32;;;2.53;;
75234;SDS011;63817;51.228;-1.472;2023-04-25T07:20:38;20.15;;;3.25;;
75234;SDS011;63817;51.228;-1.472;2023-04-25T07:23:04;10.45;;;2.58;;
75234;SDS011;63817;51.228;-1.472;2023-04-25T07:25:29;17.48;;;3.05;;
75234;SDS011;63817;51.228;-1.472;2023-04-25T07:27:55;18.13;;;2.78;;
75234;SDS011;63817;51.228;-1.472;2023-04-25T07:30:21;15.02;;;2.80;;
75234;SDS011;63817;51.228;-1.472;2023-04-25T07:32:47;17.17;;;2.78;;
75234;SDS011;63817;51.228;-1.472;2023-04-25T07:35:13;15.77;;;3.40;;
75234;SDS011;63817;51.228;-1.472;2023-04-25T07:37:39;16.33;;;3.50;;
75234;SDS011;63817;51.228;-1.472;2023-04-25T07:40:04;16.02;;;3.13;;
75234;SDS011;63817;51.228;-1.472;2023-04-25T07:42:30;12.25;;;3.00;;
75234;SDS011;63817;51.228;-1.472;2023-04-25T07:44:56;15.25;;;3.47;;
75234;SDS011;63817;51.228;-1.472;2023-04-25T07:47:21;18.15;;;3.20;;
75234;SDS011;63817;51.228;-1.472;2023-04-25T07:49:47;9.95;;;2.38;;
75234;SDS011;63817;51.228;-1.472;2023-04-25T07:52:12;9.18;;;2.47;;
75234;SDS011;63817;51.228;-1.472;2023-04-25T07:54:38;12.57;;;2.97;;
75234;SDS011;63817;51.228;-1.472;2023-04-25T07:57:03;7.97;;;2.53;;
75234;SDS011;63817;51.228;-1.472;2023-04-25T07:59:31;11.02;;;2.63;;
75234;SDS011;63817;51.228;-1.472;2023-04-25T08:01:56;11.07;;;2.58;;
75234;SDS011;63817;51.228;-1.472;2023-04-25T08:04:22;15.30;;;3.05;;
75234;SDS011;63817;51.228;-1.472;2023-04-25T08:06:48;15.73;;;3.47;;
75234;SDS011;63817;51.228;-1.472;2023-04-25T08:09:13;12.00;;;3.45;;
75234;SDS011;63817;51.228;-1.472;2023-04-25T08:11:40;15.30;;;3.28;;
75234;SDS011;63817;51.228;-1.472;2023-04-25T08:14:06;16.40;;;3.60;;
75234;SDS011;63817;51.228;-1.472;2023-04-25T08:16:32;12.23;;;3.33;;
75234;SDS011;63817;51.228;-1.472;2023-04-25T08:18:58;19.85;;;2.78;;
75234;SDS011;63817;51.228;-1.472;2023-04-25T08:21:24;15.30;;;2.95;;
75234;SDS011;63817;51.228;-1.472;2023-04-25T08:23:51;11.60;;;2.63;;
75234;SDS011;63817;51.228;-1.472;2023-04-25T08:26:17;15.82;;;2.00;;
75234;SDS011;63817;51.228;-1.472;2023-04-25T08:28:42;10.35;;;2.30;;
75234;SDS011;63817;51.228;-1.472;2023-04-25T08:31:10;11.20;;;2.22;;
75234;SDS011;63817;51.228;-1.472;2023-04-25T08:33:36;8.73;;;2.25;;
75234;SDS011;63817;51.228;-1.472;2023-04-25T08:36:02;11.52;;;2.05;;
75234;SDS011;63817;51.228;-1.472;2023-04-25T08:38:27;11.40;;;2.53;;
75234;SDS011;63817;51.228;-1.472;2023-04-25T08:40:53;10.02;;;2.30;;
75234;SDS011;63817;51.228;-1.472;2023-04-25T08:43:20;11.23;;;3.05;;
75234;SDS011;63817;51.228;-1.472;2023-04-25T08:45:46;9.07;;;2.28;;
75234;SDS011;63817;51.228;-1.472;2023-04-25T08:48:12;12.98;;;2.90;;
75234;SDS011;63817;51.228;-1.472;2023-04-25T08:50:39;9.10;;;2.38;;
75234;SDS011;63817;51.228;-1.472;2023-04-25T08:53:10;8.60;;;2.08;;
75234;SDS011;63817;51.228;-1.472;2023-04-25T08:55:41;11.95;;;2.47;;
75234;SDS011;63817;51.228;-1.472;2023-04-25T08:58:07;8.32;;;1.90;;
75234;SDS011;63817;51.228;-1.472;2023-04-25T09:00:32;7.97;;;2.47;;
75234;SDS011;63817;51.228;-1.472;2023-04-25T09:02:58;13.82;;;2.08;;
75234;SDS011;63817;51.228;-1.472;2023-04-25T09:05:24;12.18;;;2.60;;
75234;SDS011;63817;51.228;-1.472;2023-04-25T09:07:49;9.10;;;2.53;;
75234;SDS011;63817;51.228;-1.472;2023-04-25T09:10:15;9.63;;;2.00;;
75234;SDS011;63817;51.228;-1.472;2023-04-25T09:12:40;10.65;;;2.28;;
75234;SDS011;63817;51.228;-1.472;2023-04-25T09:15:06;8.30;;;1.75;;
75234;SDS011;63817;51.228;-1.472;2023-04-25T09:17:36;4.53;;;1.52;;
75234;SDS011;63817;51.228;-1.472;2023-04-25T09:20:14;7.10;;;2.10;;
75234;SDS011;63817;51.228;-1.472;2023-04-25T09:22:40;6.78;;;1.80;;
75234;SDS011;63817;51.228;-1.472;2023-04-25T09:25:11;10.55;;;1.95;;
75234;SDS011;63817;51.228;-1.472;2023-04-25T09:27:54;9.40;;;1.88;;
75234;SDS011;63817;51.228;-1.472;2023-04-25T09:30:30;9.57;;;1.77;;
75234;SDS011;63817;51.228;-1.472;2023-04-25T09:32:57;10.85;;;2.30;;
75234;SDS011;63817;51.228;-1.472;2023-04-25T09:35:26;10.90;;;2.20;;
75234;SDS011;63817;51.228;-1.472;2023-04-25T09:37:52;5.90;;;1.98;;
75234;SDS011;63817;51.228;-1.472;2023-04-25T09:40:17;6.30;;;1.80;;
75234;SDS011;63817;51.228;-1.472;2023-04-25T09:42:43;5.85;;;1.55;;
75234;SDS011;63817;51.228;-1.472;2023-04-25T09:45:09;6.95;;;1.50;;
75234;SDS011;63817;51.228;-1.472;2023-04-25T09:47:38;2.60;;;1.60;;
75234;SDS011;63817;51.228;-1.472;2023-04-25T09:50:04;3.00;;;1.33;;
75234;SDS011;63817;51.228;-1.472;2023-04-25T09:52:39;3.42;;;0.90;;
75234;SDS011;63817;51.228;-1.472;2023-04-25T09:55:04;8.18;;;1.80;;
75234;SDS011;63817;51.228;-1.472;2023-04-25T09:57:30;13.23;;;1.40;;
75234;SDS011;63817;51.228;-1.472;2023-04-25T09:59:56;3.63;;;1.10;;
75234;SDS011;63817;51.228;-1.472;2023-04-25T10:02:23;3.20;;;1.58;;
75234;SDS011;63817;51.228;-1.472;2023-04-25T10:04:53;4.80;;;1.33;;
75234;SDS011;63817;51.228;-1.472;2023-04-25T10:07:20;5.60;;;1.20;;
75234;SDS011;63817;51.228;-1.472;2023-04-25T10:09:50;3.58;;;1.48;;
75234;SDS011;63817;51.228;-1.472;2023-04-25T10:12:20;8.55;;;1.70;;
75234;SDS011;63817;51.228;-1.472;2023-04-25T10:14:47;5.15;;;1.40;;
75234;SDS011;63817;51.228;-1.472;2023-04-25T10:17:12;2.92;;;1.23;;
75234;SDS011;63817;51.228;-1.472;2023-04-25T10:19:39;4.72;;;1.10;;
75234;SDS011;63817;51.228;-1.472;2023-04-25T10:22:06;4.68;;;1.30;;
75234;SDS011;63817;51.228;-1.472;2023-04-25T10:24:34;3.70;;;1.52;;
75234;SDS011;63817;51.228;-1.472;2023-04-25T10:27:00;5.75;;;1.63;;
75234;SDS011;63817;51.228;-1.472;2023-04-25T10:29:26;4.63;;;1.65;;
75234;SDS011;63817;51.228;-1.472;2023-04-25T10:31:52;5.07;;;1.98;;
75234;SDS011;63817;51.228;-1.472;2023-04-25T10:34:18;2.97;;;1.20;;
75234;SDS011;63817;51.228;-1.472;2023-04-25T10:36:51;4.72;;;1.30;;
75234;SDS011;63817;51.228;-1.472;2023-04-25T10:39:24;3.90;;;1.63;;
75234;SDS011;63817;51.228;-1.472;2023-04-25T10:41:55;3.70;;;1.42;;
75234;SDS011;63817;51.228;-1.472;2023-04-25T10:44:21;4.03;;;1.40;;
75234;SDS011;63817;51.228;-1.472;2023-04-25T10:46:47;4.15;;;1.40;;
75234;SDS011;63817;51.228;-1.472;2023-04-25T10:49:28;3.90;;;1.10;;
75234;SDS011;63817;51.228;-1.472;2023-04-25T10:54:46;5.40;;;1.42;;
75234;SDS011;63817;51.228;-1.472;2023-04-25T10:57:25;4.55;;;1.60;;
75234;SDS011;63817;51.228;-1.472;2023-04-25T11:00:01;8.18;;;1.73;;
75234;SDS011;63817;51.228;-1.472;2023-04-25T11:02:31;3.50;;;1.38;;
75234;SDS011;63817;51.228;-1.472;2023-04-25T11:04:56;5.05;;;1.50;;
75234;SDS011;63817;51.228;-1.472;2023-04-25T11:10:12;7.80;;;1.90;;
75234;SDS011;63817;51.228;-1.472;2023-04-25T11:12:39;6.78;;;1.73;;
75234;SDS011;63817;51.228;-1.472;2023-04-25T11:15:05;5.07;;;1.48;;
75234;SDS011;63817;51.228;-1.472;2023-04-25T11:17:31;4.20;;;1.55;;
75234;SDS011;63817;51.228;-1.472;2023-04-25T11:19:57;5.00;;;1.80;;
75234;SDS011;63817;51.228;-1.472;2023-04-25T11:22:22;3.92;;;1.73;;
75234;SDS011;63817;51.228;-1.472;2023-04-25T11:24:48;6.13;;;1.50;;
75234;SDS011;63817;51.228;-1.472;2023-04-25T11:27:14;5.18;;;1.83;;
75234;SDS011;63817;51.228;-1.472;2023-04-25T11:29:40;8.35;;;1.90;;
75234;SDS011;63817;51.228;-1.472;2023-04-25T11:32:06;6.28;;;1.75;;
75234;SDS011;63817;51.228;-1.472;2023-04-25T11:34:31;6.00;;;2.17;;
75234;SDS011;63817;51.228;-1.472;2023-04-25T11:36:58;8.48;;;2.42;;
75234;SDS011;63817;51.228;-1.472;2023-04-25T11:39:24;4.57;;;1.70;;
75234;SDS011;63817;51.228;-1.472;2023-04-25T11:41:50;6.32;;;2.28;;
75234;SDS011;63817;51.228;-1.472;2023-04-25T11:44:17;8.13;;;2.35;;
75234;SDS011;63817;51.228;-1.472;2023-04-25T11:46:43;6.75;;;2.00;;
75234;SDS011;63817;51.228;-1.472;2023-04-25T11:49:09;4.45;;;2.22;;
75234;SDS011;63817;51.228;-1.472;2023-04-25T11:51:38;5.78;;;1.83;;
75234;SDS011;63817;51.228;-1.472;2023-04-25T11:54:05;3.83;;;1.67;;
75234;SDS011;63817;51.228;-1.472;2023-04-25T11:56:30;5.07;;;1.70;;
75234;SDS011;63817;51.228;-1.472;2023-04-25T11:59:00;4.25;;;1.52;;
75234;SDS011;63817;51.228;-1.472;2023-04-25T12:01:33;3.25;;;1.88;;
75234;SDS011;63817;51.228;-1.472;2023-04-25T12:06:44;6.15;;;2.33;;
75234;SDS011;63817;51.228;-1.472;2023-04-25T12:09:13;5.45;;;1.88;;
75234;SDS011;63817;51.228;-1.472;2023-04-25T12:12:01;3.25;;;1.67;;
75234;SDS011;63817;51.228;-1.472;2023-04-25T12:14:34;4.57;;;2.05;;
75234;SDS011;63817;51.228;-1.472;2023-04-25T12:17:01;4.88;;;2.00;;
75234;SDS011;63817;51.228;-1.472;2023-04-25T12:19:32;6.38;;;1.80;;
75234;SDS011;63817;51.228;-1.472;2023-04-25T12:22:01;5.55;;;2.63;;
75234;SDS011;63817;51.228;-1.472;2023-04-25T12:24:32;4.82;;;2.35;;
75234;SDS011;63817;51.228;-1.472;2023-04-25T12:26:59;10.60;;;2.38;;
75234;SDS011;63817;51.228;-1.472;2023-04-25T12:29:27;4.78;;;1.95;;
75234;SDS011;63817;51.228;-1.472;2023-04-25T12:31:54;8.27;;;2.38;;
75234;SDS011;63817;51.228;-1.472;2023-04-25T12:34:21;7.72;;;2.40;;
75234;SDS011;63817;51.228;-1.472;2023-04-25T12:36:48;6.07;;;2.40;;
75234;SDS011;63817;51.228;-1.472;2023-04-25T12:39:14;6.15;;;2.33;;
75234;SDS011;63817;51.228;-1.472;2023-04-25T12:41:52;5.32;;;2.58;;
75234;SDS011;63817;51.228;-1.472;2023-04-25T12:44:21;6.07;;;2.10;;
75234;SDS011;63817;51.228;-1.472;2023-04-25T12:46:46;5.95;;;2.20;;
75234;SDS011;63817;51.228;-1.472;2023-04-25T12:49:12;5.13;;;2.45;;
75234;SDS011;63817;51.228;-1.472;2023-04-25T12:51:38;7.70;;;2.33;;
75234;SDS011;63817;51.228;-1.472;2023-04-25T12:54:04;7.97;;;2.20;;
75234;SDS011;63817;51.228;-1.472;2023-04-25T12:56:31;5.43;;;2.40;;
75234;SDS011;63817;51.228;-1.472;2023-04-25T12:58:56;6.30;;;2.22;;
75234;SDS011;63817;51.228;-1.472;2023-04-25T13:01:23;10.98;;;2.60;;
75234;SDS011;63817;51.228;-1.472;2023-04-25T13:03:49;5.03;;;2.22;;
75234;SDS011;63817;51.228;-1.472;2023-04-25T13:06:15;8.60;;;2.33;;
75234;SDS011;63817;51.228;-1.472;2023-04-25T13:08:40;6.95;;;2.50;;
75234;SDS011;63817;51.228;-1.472;2023-04-25T13:11:07;6.88;;;3.13;;
75234;SDS011;63817;51.228;-1.472;2023-04-25T13:13:32;6.45;;;2.42;;
75234;SDS011;63817;51.228;-1.472;2023-04-25T13:15:59;5.25;;;2.53;;
75234;SDS011;63817;51.228;-1.472;2023-04-25T13:18:29;10.00;;;2.45;;
75234;SDS011;63817;51.228;-1.472;2023-04-25T13:20:54;4.82;;;2.22;;
75234;SDS011;63817;51.228;-1.472;2023-04-25T13:23:20;7.47;;;2.83;;
75234;SDS011;63817;51.228;-1.472;2023-04-25T13:25:47;4.70;;;2.20;;
75234;SDS011;63817;51.228;-1.472;2023-04-25T13:28:12;5.10;;;2.28;;
75234;SDS011;63817;51.228;-1.472;2023-04-25T13:30:38;4.88;;;2.67;;
75234;SDS011;63817;51.228;-1.472;2023-04-25T13:33:04;8.60;;;2.92;;
75234;SDS011;63817;51.228;-1.472;2023-04-25T13:35:31;10.85;;;3.63;;
75234;SDS011;63817;51.228;-1.472;2023-04-25T13:37:57;8.65;;;2.47;;
75234;SDS011;63817;51.228;-1.472;2023-04-25T13:40:23;7.35;;;2.70;;
75234;SDS011;63817;51.228;-1.472;2023-04-25T13:42:48;7.70;;;2.60;;
75234;SDS011;63817;51.228;-1.472;2023-04-25T13:45:13;9.55;;;2.80;;
75234;SDS011;63817;51.228;-1.472;2023-04-25T13:47:39;8.48;;;2.33;;
75234;SDS011;63817;51.228;-1.472;2023-04-25T13:50:05;6.20;;;2.63;;
75234;SDS011;63817;51.228;-1.472;2023-04-25T13:52:32;4.65;;;2.53;;
75234;SDS011;63817;51.228;-1.472;2023-04-25T13:54:57;7.43;;;3.03;;
75234;SDS011;63817;51.228;-1.472;2023-04-25T13:57:23;6.25;;;2.92;;
75234;SDS011;63817;51.228;-1.472;2023-04-25T13:59:49;10.43;;;2.83;;
75234;SDS011;63817;51.228;-1.472;2023-04-25T14:02:15;6.88;;;2.47;;
75234;SDS011;63817;51.228;-1.472;2023-04-25T14:04:42;6.93;;;2.70;;
75234;SDS011;63817;51.228;-1.472;2023-04-25T14:07:07;8.70;;;3.10;;
75234;SDS011;63817;51.228;-1.472;2023-04-25T14:09:33;8.07;;;2.60;;
75234;SDS011;63817;51.228;-1.472;2023-04-25T14:11:59;5.85;;;2.92;;
75234;SDS011;63817;51.228;-1.472;2023-04-25T14:14:25;6.43;;;2.67;;
75234;SDS011;63817;51.228;-1.472;2023-04-25T14:16:50;8.82;;;2.83;;
75234;SDS011;63817;51.228;-1.472;2023-04-25T14:19:18;10.70;;;4.57;;
75234;SDS011;63817;51.228;-1.472;2023-04-25T14:21:44;7.43;;;2.58;;
75234;SDS011;63817;51.228;-1.472;2023-04-25T14:24:11;8.85;;;3.35;;
75234;SDS011;63817;51.228;-1.472;2023-04-25T14:26:36;6.45;;;3.13;;
75234;SDS011;63817;51.228;-1.472;2023-04-25T14:29:05;7.00;;;2.80;;
75234;SDS011;63817;51.228;-1.472;2023-04-25T14:31:32;10.07;;;3.88;;